Погода Ошикангона неделю

Очикото, Намибия

03 - 09 марта
  • 03марта
    Сегодня
    +22°
    +35°
    Ясно и безоблачно
    ВремяПогодаТемператураВлажностьДавлениеВетер, м/сВероятность осадков
    02:00Практически безоблачно+25°C43 %670 мм2.7 м/с5 %
    05:00Ясно и безоблачно+23°C53 %670 мм2.3 м/с5 %
    08:00Небольшая облачность+24°C52 %671 мм2.4 м/с5 %
    11:00Практически безоблачно+31°C32 %673 мм2.2 м/с5 %
    14:00Ясно и безоблачно+34°C24 %672 мм1.4 м/с5 %
    17:00Практически безоблачно+36°C22 %671 мм0.4 м/с5 %
    20:00Практически безоблачно+32°C27 %670 мм1.6 м/с5 %
    23:00Ясно и безоблачно+28°C34 %670 мм3.8 м/с5 %
  • 04марта
    Понедельник
    +22°
    +36°
    Ясно и безоблачно
    ВремяПогодаТемператураВлажностьДавлениеВетер, м/сВероятность осадков
    02:00Ясно и безоблачно+27°C46 %670 мм4.7 м/с5 %
    05:00Ясно и безоблачно+24°C42 %669 мм4.9 м/с5 %
    08:00Ясно и безоблачно+24°C40 %670 мм3.1 м/с5 %
    11:00Ясно и безоблачно+30°C25 %672 мм4.2 м/с5 %
    14:00Ясно и безоблачно+35°C18 %670 мм2.5 м/с5 %
    17:00Пасмурно, сплошная облачность+37°C15 %669 мм2.6 м/с5 %
    20:00Практически безоблачно+32°C20 %668 мм1.8 м/с5 %
    23:00Ясно и безоблачно+30°C23 %669 мм5.6 м/с5 %
  • 05марта
    Вторник
    +21°
    +35°
    Ясно и безоблачно
    ВремяПогодаТемператураВлажностьДавлениеВетер, м/сВероятность осадков
    02:00Ясно и безоблачно+26°C32 %670 мм4.8 м/с5 %
    05:00Небольшая облачность+23°C41 %669 мм2.1 м/с5 %
    08:00Ясно и безоблачно+23°C38 %670 мм2.2 м/с5 %
    11:00Ясно и безоблачно+29°C20 %672 мм2.7 м/с5 %
    14:00Ясно и безоблачно+34°C15 %671 мм3.7 м/с5 %
    17:00Ясно и безоблачно+36°C14 %669 мм3.8 м/с5 %
    20:00Ясно и безоблачно+31°C19 %668 мм2.2 м/с5 %
    23:00Ясно и безоблачно+28°C21 %669 мм5.4 м/с5 %
  • 06марта
    Среда
    +19°
    +34°
    Небольшая облачность
    ВремяПогодаТемператураВлажностьДавлениеВетер, м/сВероятность осадков
    02:00Ясно и безоблачно+25°C24 %669 мм5.0 м/с5 %
    05:00Ясно и безоблачно+21°C36 %669 мм2.5 м/с5 %
    08:00Ясно и безоблачно+22°C37 %670 мм2.1 м/с5 %
    11:00Ясно и безоблачно+29°C20 %672 мм2.0 м/с5 %
    14:00Небольшая облачность+33°C13 %671 мм2.4 м/с5 %
    17:00Практически безоблачно+36°C12 %669 мм3.3 м/с5 %
    20:00Ясно и безоблачно+31°C17 %668 мм2.2 м/с5 %
    23:00Ясно и безоблачно+28°C17 %670 мм5.3 м/с5 %
Мы используем cookies
Соглашаюсь